createdAt,value
2022-11-28T00:01:00.784Z,7.51
2022-11-28T00:03:48.885Z,8.46
2022-11-28T00:06:40.272Z,9.32
2022-11-28T00:09:28.166Z,9.80
2022-11-28T00:12:15.976Z,10.08
2022-11-28T00:15:05.663Z,10.33
2022-11-28T00:17:53.058Z,10.18
2022-11-28T00:20:40.882Z,8.94
2022-11-28T00:23:29.046Z,7.84
2022-11-28T00:26:21.246Z,7.28
2022-11-28T00:29:11.100Z,8.40
2022-11-28T00:31:59.980Z,9.36
2022-11-28T00:34:47.471Z,9.93
2022-11-28T00:37:35.670Z,10.32
2022-11-28T00:40:23.472Z,10.11
2022-11-28T00:43:12.926Z,8.91
2022-11-28T00:46:07.564Z,7.91
2022-11-28T00:48:55.818Z,7.22
2022-11-28T00:51:43.652Z,7.17
2022-11-28T00:54:31.593Z,8.36
2022-11-28T00:57:19.288Z,9.35
2022-11-28T01:00:08.512Z,9.98
2022-11-28T01:02:56.165Z,10.24
2022-11-28T01:05:43.888Z,9.22
2022-11-28T01:08:31.667Z,8.16
2022-11-28T01:11:20.406Z,7.47
2022-11-28T01:14:09.184Z,7.27
2022-11-28T01:16:56.644Z,8.36
2022-11-28T01:19:44.226Z,9.33
2022-11-28T01:22:31.858Z,9.93
2022-11-28T01:25:19.465Z,9.90
2022-11-28T01:28:07.151Z,8.75
2022-11-28T01:30:54.972Z,7.72
2022-11-28T01:33:43.233Z,7.02
2022-11-28T01:36:31.003Z,6.92
2022-11-28T01:39:18.652Z,8.07
2022-11-28T01:42:06.288Z,9.00
2022-11-28T01:44:53.798Z,9.60
2022-11-28T01:47:41.649Z,9.99
2022-11-28T01:50:31.704Z,9.66
2022-11-28T01:53:20.305Z,8.39
2022-11-28T01:56:28.818Z,7.39
2022-11-28T01:59:16.517Z,6.65
2022-11-28T02:02:15.261Z,7.20
2022-11-28T02:05:04.378Z,8.34
2022-11-28T02:07:52.874Z,9.03
2022-11-28T02:11:30.537Z,9.46
2022-11-28T02:14:42.542Z,9.85
2022-11-28T02:17:45.406Z,9.55
2022-11-28T02:21:00.491Z,8.13
2022-11-28T02:24:12.665Z,6.94
2022-11-28T02:27:27.492Z,6.68
2022-11-28T02:30:44.670Z,7.86
2022-11-28T02:33:36.160Z,8.62
2022-11-28T02:36:36.240Z,9.09
2022-11-28T02:39:37.811Z,9.41
2022-11-28T02:42:43.226Z,9.63
2022-11-28T02:46:11.962Z,9.37
2022-11-28T02:49:07.489Z,7.67
2022-11-28T02:52:06.850Z,6.60
2022-11-28T02:54:55.370Z,6.22
2022-11-28T02:57:51.325Z,7.20
2022-11-28T03:00:44.881Z,8.04
2022-11-28T03:03:52.887Z,8.51
2022-11-28T03:07:09.563Z,8.94
2022-11-28T03:10:15.478Z,9.18
2022-11-28T03:13:19.802Z,8.63
2022-11-28T03:16:51.079Z,7.13
2022-11-28T03:19:52.064Z,5.99
2022-11-28T03:23:16.181Z,6.72
2022-11-28T03:26:41.100Z,7.65
2022-11-28T03:29:59.934Z,8.16
2022-11-28T03:32:51.839Z,8.41
2022-11-28T03:35:49.109Z,8.66
2022-11-28T03:38:46.933Z,8.76
2022-11-28T03:42:08.224Z,7.88
2022-11-28T03:45:11.468Z,6.33
2022-11-28T03:48:18.557Z,6.36
2022-11-28T03:51:37.027Z,7.28
2022-11-28T03:54:45.493Z,7.77
2022-11-28T03:58:07.782Z,8.08
2022-11-28T04:01:28.013Z,8.23
2022-11-28T04:04:37.196Z,8.08
2022-11-28T04:07:42.994Z,6.72
2022-11-28T04:10:56.772Z,5.94
2022-11-28T04:13:57.366Z,6.81
2022-11-28T04:16:54.128Z,7.61
2022-11-28T04:19:49.940Z,7.96
2022-11-28T04:22:55.672Z,8.25
2022-11-28T04:25:58.265Z,8.29
2022-11-28T04:28:49.678Z,8.43
2022-11-28T04:31:40.419Z,8.68
2022-11-28T04:34:30.836Z,8.36
2022-11-28T04:37:20.443Z,6.90
2022-11-28T04:40:11.891Z,5.97
2022-11-28T04:43:05.550Z,6.48
2022-11-28T04:45:59.847Z,7.09
2022-11-28T04:48:47.763Z,7.49
2022-11-28T04:51:59.488Z,7.61
2022-11-28T04:54:59.393Z,7.76
2022-11-28T04:57:57.549Z,8.02
2022-11-28T05:00:46.481Z,8.10
2022-11-28T05:03:36.801Z,7.65
2022-11-28T05:06:35.126Z,6.27
2022-11-28T05:09:22.789Z,5.70
2022-11-28T05:12:10.595Z,6.53
2022-11-28T05:14:58.300Z,7.17
2022-11-28T05:17:47.046Z,7.45
2022-11-28T05:20:35.423Z,7.59
2022-11-28T05:23:22.969Z,7.61
2022-11-28T05:26:14.770Z,7.79
2022-11-28T05:29:02.852Z,7.63
2022-11-28T05:31:50.485Z,7.83
2022-11-28T05:34:38.459Z,7.72
2022-11-28T05:37:26.080Z,7.86
2022-11-28T05:40:13.886Z,8.17
2022-11-28T05:43:01.435Z,8.51
2022-11-28T05:45:49.309Z,7.82
2022-11-28T05:48:36.915Z,6.28
2022-11-28T05:51:24.929Z,6.27
2022-11-28T05:54:12.482Z,7.01
2022-11-28T05:56:59.979Z,7.39
2022-11-28T05:59:47.460Z,7.77
2022-11-28T06:02:36.392Z,7.94
2022-11-28T06:05:41.527Z,8.05
2022-11-28T06:08:30.421Z,8.23
2022-11-28T06:11:20.528Z,7.43
2022-11-28T06:14:08.360Z,6.12
2022-11-28T06:16:56.111Z,6.26
2022-11-28T06:19:43.677Z,6.83
2022-11-28T06:22:31.973Z,7.16
2022-11-28T06:25:19.589Z,7.39
2022-11-28T06:28:07.209Z,7.69
2022-11-28T06:30:54.942Z,7.89
2022-11-28T06:33:43.106Z,7.94
2022-11-28T06:36:31.081Z,7.80
2022-11-28T06:39:18.908Z,7.85
2022-11-28T06:42:06.662Z,8.02
2022-11-28T06:44:54.233Z,8.10
2022-11-28T06:47:42.000Z,8.19
2022-11-28T06:50:29.548Z,8.20
2022-11-28T06:53:18.645Z,7.51
2022-11-28T06:56:09.541Z,6.20
2022-11-28T06:58:59.506Z,5.68
2022-11-28T07:01:48.668Z,6.67
2022-11-28T07:04:35.903Z,7.41
2022-11-28T07:07:23.719Z,7.89
2022-11-28T07:10:12.120Z,8.18
2022-11-28T07:13:05.168Z,8.40
2022-11-28T07:15:53.153Z,8.50
2022-11-28T07:18:40.945Z,8.50
2022-11-28T07:21:29.019Z,7.33
2022-11-28T07:24:20.022Z,6.01
2022-11-28T07:27:07.515Z,5.98
2022-11-28T07:29:55.145Z,6.70
2022-11-28T07:32:42.849Z,7.23
2022-11-28T07:35:33.824Z,7.69
2022-11-28T07:38:21.769Z,7.82
2022-11-28T07:41:13.572Z,7.81
2022-11-28T07:44:03.705Z,8.10
2022-11-28T07:46:51.244Z,8.18
2022-11-28T07:49:39.215Z,8.09
2022-11-28T07:52:26.713Z,7.39
2022-11-28T07:55:14.619Z,6.10
2022-11-28T07:58:04.143Z,5.51
2022-11-28T08:00:51.454Z,6.24
2022-11-28T08:03:39.323Z,7.05
2022-11-28T08:06:30.809Z,7.58
2022-11-28T08:09:19.447Z,7.76
2022-11-28T08:12:07.355Z,7.91
2022-11-28T08:14:55.110Z,8.02
2022-11-28T08:17:42.953Z,8.19
2022-11-28T08:20:30.869Z,7.06
2022-11-28T08:23:18.198Z,6.04
2022-11-28T08:26:10.408Z,6.43
2022-11-28T08:28:59.689Z,7.05
2022-11-28T08:31:47.322Z,7.56
2022-11-28T08:34:35.177Z,7.66
2022-11-28T08:37:23.074Z,7.83
2022-11-28T08:40:11.014Z,8.17
2022-11-28T08:42:59.459Z,8.40
2022-11-28T08:45:48.283Z,8.64
2022-11-28T08:48:37.706Z,7.77
2022-11-28T08:51:25.090Z,6.44
2022-11-28T08:54:12.767Z,6.20
2022-11-28T08:57:01.593Z,7.09
2022-11-28T08:59:49.278Z,7.82
2022-11-28T09:02:36.899Z,8.23
2022-11-28T09:05:24.320Z,8.13
2022-11-28T09:08:16.639Z,6.85
2022-11-28T09:11:09.797Z,6.10
2022-11-28T09:13:57.726Z,7.04
2022-11-28T09:16:45.574Z,7.98
2022-11-28T09:19:33.226Z,8.59
2022-11-28T09:22:21.173Z,8.92
2022-11-28T09:25:09.207Z,9.19
2022-11-28T09:27:56.752Z,9.09
2022-11-28T09:30:45.018Z,7.87
2022-11-28T09:33:33.414Z,6.76
2022-11-28T09:36:23.922Z,6.37
2022-11-28T09:39:11.750Z,7.56
2022-11-28T09:42:30.522Z,8.27
2022-11-28T09:45:22.361Z,8.67
2022-11-28T09:48:45.727Z,8.53
2022-11-28T09:51:45.447Z,6.92
2022-11-28T09:54:52.354Z,6.68
2022-11-28T09:57:50.339Z,8.74
2022-11-28T10:01:00.238Z,8.04
2022-11-28T10:04:36.350Z,6.50
2022-11-28T10:08:09.857Z,5.45
2022-11-28T10:11:38.354Z,6.72
2022-11-28T10:14:51.423Z,8.40
2022-11-28T10:18:19.197Z,9.01
2022-11-28T10:21:34.978Z,8.34
2022-11-28T10:24:35.453Z,7.10
2022-11-28T10:27:32.940Z,8.13
2022-11-28T10:30:38.385Z,8.78
2022-11-28T10:33:38.138Z,8.11
2022-11-28T10:36:47.211Z,6.80
2022-11-28T10:39:39.997Z,5.77
2022-11-28T10:43:06.369Z,5.56
2022-11-28T10:46:13.206Z,6.99
2022-11-28T10:49:00.718Z,8.10
2022-11-28T10:52:15.813Z,8.73
2022-11-28T10:55:25.234Z,9.09
2022-11-28T10:58:27.643Z,8.26
2022-11-28T11:01:15.938Z,6.94
2022-11-28T11:04:13.106Z,6.40
2022-11-28T11:07:29.719Z,7.29
2022-11-28T11:10:44.526Z,7.96
2022-11-28T11:13:55.268Z,8.47
2022-11-28T11:16:55.924Z,8.25
2022-11-28T11:19:43.591Z,6.97
2022-11-28T11:22:32.595Z,6.29
2022-11-28T11:25:23.005Z,7.16
2022-11-28T11:28:40.380Z,8.03
2022-11-28T11:31:32.590Z,8.65
2022-11-28T11:34:23.453Z,8.99
2022-11-28T11:37:33.308Z,8.36
2022-11-28T11:40:30.107Z,6.87
2022-11-28T11:43:33.231Z,6.49
2022-11-28T11:46:21.927Z,8.75
2022-11-28T11:49:28.715Z,9.24
2022-11-28T11:52:24.158Z,7.68
2022-11-28T11:55:17.478Z,6.45
2022-11-28T11:58:09.320Z,5.67
2022-11-28T12:01:00.007Z,5.91
2022-11-28T12:04:17.785Z,7.17
2022-11-28T12:07:52.611Z,8.34
2022-11-28T12:11:00.290Z,8.80
2022-11-28T12:13:49.198Z,7.56
2022-11-28T12:16:42.696Z,6.45
2022-11-28T12:19:37.176Z,6.93
2022-11-28T12:22:43.814Z,7.74
2022-11-28T12:25:49.441Z,8.32
2022-11-28T12:29:12.541Z,8.64
2022-11-28T12:32:36.952Z,7.37
2022-11-28T12:35:41.170Z,5.99
2022-11-28T12:39:32.097Z,5.74
2022-11-28T12:42:38.411Z,7.21
2022-11-28T12:45:41.637Z,8.05
2022-11-28T12:48:54.803Z,8.58
2022-11-28T12:52:13.156Z,9.01
2022-11-28T12:55:30.344Z,8.01
2022-11-28T12:58:35.599Z,6.65
2022-11-28T13:01:53.651Z,5.98
2022-11-28T13:05:10.684Z,7.10
2022-11-28T13:08:19.333Z,8.13
2022-11-28T13:11:24.287Z,8.67
2022-11-28T13:14:29.452Z,8.60
2022-11-28T13:17:23.361Z,7.20
2022-11-28T13:20:39.085Z,6.02
2022-11-28T13:23:46.438Z,5.93
2022-11-28T13:26:59.113Z,7.09
2022-11-28T13:30:06.707Z,7.96
2022-11-28T13:33:21.968Z,8.54
2022-11-28T13:39:58.702Z,8.17
2022-11-28T13:43:09.612Z,6.71
2022-11-28T13:45:57.331Z,6.12
2022-11-28T13:52:17.367Z,7.90
2022-11-28T13:55:05.107Z,8.30
2022-11-28T13:57:52.502Z,8.53
2022-11-28T14:00:40.560Z,8.35
2022-11-28T14:03:31.658Z,7.10
2022-11-28T14:06:24.010Z,5.92
2022-11-28T14:09:25.386Z,6.07
2022-11-28T14:12:27.772Z,7.07
2022-11-28T14:16:07.767Z,7.82
2022-11-28T14:19:44.568Z,8.43
2022-11-28T14:22:47.420Z,7.83
2022-11-28T14:25:51.459Z,6.43
2022-11-28T14:28:44.749Z,5.33
2022-11-28T14:31:40.124Z,5.36
2022-11-28T14:34:49.036Z,6.49
2022-11-28T14:37:53.755Z,7.37
2022-11-28T14:40:56.908Z,7.75
2022-11-28T14:43:48.747Z,8.12
2022-11-28T14:46:36.501Z,7.45
2022-11-28T14:49:24.245Z,6.12
2022-11-28T14:52:40.979Z,5.57
2022-11-28T14:55:30.285Z,6.80
2022-11-28T14:58:17.632Z,7.38
2022-11-28T15:01:13.403Z,7.78
2022-11-28T15:04:59.170Z,7.95
2022-11-28T15:08:15.136Z,8.16
2022-11-28T15:11:15.548Z,7.33
2022-11-28T15:14:23.763Z,5.86
2022-11-28T15:17:14.625Z,5.62
2022-11-28T15:20:20.549Z,6.56
2022-11-28T15:23:32.615Z,7.30
2022-11-28T15:26:30.776Z,7.63
2022-11-28T15:29:28.658Z,7.91
2022-11-28T15:32:16.736Z,8.24
2022-11-28T15:35:12.353Z,7.71
2022-11-28T15:38:00.546Z,6.21
2022-11-28T15:40:55.043Z,5.29
2022-11-28T15:43:45.975Z,6.03
2022-11-28T15:46:34.710Z,6.89
2022-11-28T15:49:32.356Z,7.46
2022-11-28T15:52:19.775Z,7.78
2022-11-28T15:55:17.392Z,7.98
2022-11-28T15:58:19.429Z,8.26
2022-11-28T16:01:27.964Z,7.42
2022-11-28T16:04:18.762Z,5.85
2022-11-28T16:07:06.865Z,5.38
2022-11-28T16:10:22.224Z,6.26
2022-11-28T16:13:14.040Z,7.04
2022-11-28T16:16:04.274Z,7.53
2022-11-28T16:18:59.308Z,7.89
2022-11-28T16:22:11.847Z,8.18
2022-11-28T16:25:12.119Z,8.40
2022-11-28T16:28:00.005Z,8.55
2022-11-28T16:30:48.475Z,7.43
2022-11-28T16:33:44.947Z,6.20
2022-11-28T16:36:37.207Z,6.42
2022-11-28T16:39:24.837Z,7.23
2022-11-28T16:42:17.963Z,7.68
2022-11-28T16:45:22.120Z,8.15
2022-11-28T16:48:17.253Z,8.50
2022-11-28T16:51:10.749Z,7.71
2022-11-28T16:54:00.919Z,6.27
2022-11-28T16:56:48.945Z,5.87
2022-11-28T16:59:37.019Z,6.83
2022-11-28T17:02:29.164Z,7.59
2022-11-28T17:05:17.818Z,8.00
2022-11-28T17:08:05.397Z,8.33
2022-11-28T17:10:55.621Z,8.69
2022-11-28T17:13:43.146Z,8.55
2022-11-28T17:16:37.006Z,7.30
2022-11-28T17:19:24.829Z,6.19
2022-11-28T17:22:15.790Z,6.01
2022-11-28T17:25:05.904Z,7.08
2022-11-28T17:27:53.516Z,7.85
2022-11-28T17:30:41.585Z,8.26
2022-11-28T17:33:29.414Z,8.61
2022-11-28T17:36:17.154Z,8.83
2022-11-28T17:39:05.496Z,8.22
2022-11-28T17:41:54.080Z,6.82
2022-11-28T17:44:41.813Z,6.12
2022-11-28T17:47:30.038Z,6.93
2022-11-28T17:50:19.024Z,7.71
2022-11-28T17:53:07.865Z,8.28
2022-11-28T17:55:59.724Z,8.62
2022-11-28T17:58:48.596Z,8.89
2022-11-28T18:01:36.124Z,8.34
2022-11-28T18:04:24.414Z,6.95
2022-11-28T18:07:12.307Z,6.20
2022-11-28T18:09:59.559Z,7.01
2022-11-28T18:12:47.010Z,7.92
2022-11-28T18:15:35.895Z,8.46
2022-11-28T18:18:23.893Z,8.79
2022-11-28T18:21:13.169Z,8.72
2022-11-28T18:24:00.870Z,7.39
2022-11-28T18:26:48.746Z,6.38
2022-11-28T18:29:36.781Z,6.97
2022-11-28T18:32:24.646Z,7.80
2022-11-28T18:35:12.372Z,8.36
2022-11-28T18:38:00.162Z,8.81
2022-11-28T18:40:48.200Z,8.69
2022-11-28T18:43:36.949Z,7.26
2022-11-28T18:46:26.107Z,6.34
2022-11-28T18:49:16.631Z,7.13
2022-11-28T18:52:04.559Z,7.85
2022-11-28T18:54:52.428Z,8.43
2022-11-28T18:57:41.492Z,8.63
2022-11-28T19:00:29.388Z,8.83
2022-11-28T19:03:16.863Z,9.03
2022-11-28T19:06:12.208Z,9.30
2022-11-28T19:09:03.973Z,8.49
2022-11-28T19:11:51.974Z,7.05
2022-11-28T19:14:39.729Z,6.65
2022-11-28T19:17:27.246Z,7.45
2022-11-28T19:20:15.317Z,8.09
2022-11-28T19:23:03.188Z,8.47
2022-11-28T19:25:51.263Z,8.75
2022-11-28T19:28:41.855Z,8.93
2022-11-28T19:31:33.884Z,8.68
2022-11-28T19:34:21.756Z,7.26
2022-11-28T19:37:09.491Z,6.32
2022-11-28T19:40:02.323Z,6.98
2022-11-28T19:42:50.965Z,7.84
2022-11-28T19:45:39.058Z,8.23
2022-11-28T19:48:30.142Z,8.74
2022-11-28T19:51:19.526Z,8.85
2022-11-28T19:54:09.007Z,8.70
2022-11-28T19:56:58.672Z,7.31
2022-11-28T19:59:46.721Z,6.15
2022-11-28T20:02:34.555Z,5.74
2022-11-28T20:05:22.814Z,6.76
2022-11-28T20:08:10.734Z,7.66
2022-11-28T20:10:58.478Z,8.12
2022-11-28T20:13:47.415Z,8.46
2022-11-28T20:16:36.771Z,8.70
2022-11-28T20:19:24.672Z,8.92
2022-11-28T20:22:13.254Z,8.78
2022-11-28T20:25:01.964Z,7.46
2022-11-28T20:27:49.676Z,6.39
2022-11-28T20:30:37.044Z,5.65
2022-11-28T20:33:24.602Z,5.50
2022-11-28T20:36:16.618Z,6.58
2022-11-28T20:39:05.250Z,7.59
2022-11-28T20:41:52.916Z,8.25
2022-11-28T20:44:40.745Z,8.65
2022-11-28T20:47:28.926Z,8.45
2022-11-28T20:50:16.670Z,7.01
2022-11-28T20:53:04.293Z,6.26
2022-11-28T20:56:03.941Z,7.10
2022-11-28T20:58:52.529Z,7.80
2022-11-28T21:01:40.064Z,8.30
2022-11-28T21:04:27.795Z,8.42
2022-11-28T21:07:15.266Z,8.65
2022-11-28T21:10:03.835Z,8.31
2022-11-28T21:12:51.415Z,6.93
2022-11-28T21:15:42.106Z,6.20
2022-11-28T21:18:29.779Z,6.99
2022-11-28T21:21:21.276Z,7.61
2022-11-28T21:24:12.430Z,8.18
2022-11-28T21:27:00.116Z,8.58
2022-11-28T21:29:52.170Z,7.49
2022-11-28T21:32:39.828Z,6.54
2022-11-28T21:35:27.478Z,7.27
2022-11-28T21:38:14.830Z,7.86
2022-11-28T21:41:02.905Z,8.28
2022-11-28T21:43:50.461Z,8.58
2022-11-28T21:46:38.555Z,8.50
2022-11-28T21:49:26.346Z,7.13
2022-11-28T21:52:16.077Z,6.45
2022-11-28T21:55:05.847Z,7.23
2022-11-28T21:57:53.308Z,8.00
2022-11-28T22:00:53.214Z,8.37
2022-11-28T22:03:44.732Z,8.60
2022-11-28T22:06:33.035Z,8.79
2022-11-28T22:09:20.349Z,7.68
2022-11-28T22:12:08.257Z,6.41
2022-11-28T22:14:56.377Z,6.72
2022-11-28T22:17:43.882Z,7.58
2022-11-28T22:20:31.220Z,8.13
2022-11-28T22:23:20.984Z,8.39
2022-11-28T22:26:08.833Z,8.52
2022-11-28T22:28:56.355Z,8.79
2022-11-28T22:31:44.406Z,7.68
2022-11-28T22:34:36.964Z,6.63
2022-11-28T22:37:27.392Z,7.28
2022-11-28T22:40:15.696Z,7.85
2022-11-28T22:43:04.951Z,8.29
2022-11-28T22:45:58.340Z,8.47
2022-11-28T22:48:46.078Z,8.63
2022-11-28T22:51:34.189Z,8.81
2022-11-28T22:54:22.364Z,8.64
2022-11-28T22:57:11.250Z,7.14
2022-11-28T22:59:58.992Z,6.77
2022-11-28T23:02:46.991Z,7.56
2022-11-28T23:05:38.754Z,8.10
2022-11-28T23:08:29.125Z,8.53
2022-11-28T23:11:23.825Z,8.39
2022-11-28T23:14:14.233Z,6.91
2022-11-28T23:17:02.754Z,6.13
2022-11-28T23:19:51.128Z,6.97
2022-11-28T23:22:38.632Z,7.79
2022-11-28T23:25:26.402Z,8.17
2022-11-28T23:28:14.817Z,8.53
2022-11-28T23:31:19.679Z,8.43
2022-11-28T23:34:09.388Z,6.91
2022-11-28T23:36:58.799Z,6.68
2022-11-28T23:39:47.438Z,7.47
2022-11-28T23:42:36.475Z,8.07
2022-11-28T23:45:24.022Z,8.32
2022-11-28T23:48:11.289Z,8.56
2022-11-28T23:50:59.211Z,8.32
2022-11-28T23:53:48.171Z,6.86
2022-11-28T23:56:37.384Z,6.44
2022-11-28T23:59:25.167Z,7.26
